Terminal Aerodrome Forecast
Issued by NWS

Home | Current Version | Previous Version | Text Only | Print | Product List | Glossary On
Versions: 1 2 3 4 5 6 7 8 9 10 11 12 13 14 15 16 17 18 19
231
FTUS43 KMQT 310523
TAFCMX
TAF
KCMX 310523Z 3106/0106 08007KT P6SM SCT150
     FM311500 11015G21KT P6SM BKN110
     FM311700 11015G21KT P6SM VCSH OVC080
     FM010300 12009KT P6SM -SHRA OVC060=

USA.gov is the U.S. government's official web portal to all federal, state and local government web resources and services.